Weathercam Coevorden Meer informatie Weathercam Coevorden



Het weer levert geen direct gevaar op.    Er zijn geen waarschuwingen afgegeven.

METAR rapporten vliegvelden

   
EHVK - Volkel Rnlafb, Netherlands
Afstand tot: ZW 18 km
Gewijzigd: 25-11-2020 03:55
Bewolking  
Bewolking  
   Wind: ZZO 9.3 km/h
Wind: ZZO 9.3 km/h
Temperatuur: 4°C
Voelt als: 2°C
Dauwpunt: 2°C
Vochtigheid: 87%
Barometer: 1016 hPa
Bewolking: Bewolking
Bewolking: Bewolking 5791.2 m
EHVK 250255Z AUTO 15005KT 120V180 //// // OVC190 04/02 Q1016 RE//
EDLV - Niederrhein, Germany
Afstand tot: ZO 25 km
Gewijzigd: 23-11-2020 23:50
Verouderd
Grotendeels bewolkt  
Grotendeels bewolkt  
   Wind: Zuiden 11.1 km/h
Wind: Zuiden 11.1 km/h
Temperatuur: 7°C
Voelt als: 5°C
Dauwpunt: 5°C
Vochtigheid: 87%
Barometer: 1027 hPa
Bewolking: Grotendeels bewolkt
Zicht: meer dan 10 km
Bewolking: Grotendeels bewolkt 1493.5 m
EDLV 232250Z 17006KT 9999 BKN049 07/05 Q1027
EHDL - Deelen Rnlafb, Netherlands
Afstand tot: N 35 km
Gewijzigd: 25-11-2020 03:55
Nevel, Bewolking  
Nevel, Bewolking  
   Wind: ZZO 11.1 km/h
Wind: ZZO 11.1 km/h
Temperatuur: 4°C
Voelt als: 1°C
Dauwpunt: 4°C
Vochtigheid: 100%
Barometer: 1016 hPa
Bewolking: Bewolking
Zicht: 8 km
Bewolking: Bewolking 5486.4 m
EHDL 250255Z AUTO 16006KT 110V200 8000 BR OVC180 04/04 Q1016 BLU
EHEH - Eindhoven Rnlafb, Netherlands
Afstand tot: ZW 48 km
Gewijzigd: 25-11-2020 03:55
Bewolking  
Bewolking  
   Wind: ZO 11.1 km/h
Wind: ZO 11.1 km/h
Temperatuur: 4°C
Voelt als: 1°C
Dauwpunt: 3°C
Vochtigheid: 93%
Barometer: 1016 hPa
Bewolking: Bewolking
Zicht: meer dan 10 km
Bewolking: Bewolking 5791.2 m
EHEH 250255Z AUTO 14006KT 9999 OVC190 04/03 Q1016 BLU
EHGR - Gilze-Rijen Rnla, Netherlands
Afstand tot: WZW 70 km
Gewijzigd: 25-11-2020 03:55
Bewolking  
Bewolking  
   Wind: ZZO 13 km/h
Wind: ZZO 13 km/h
Temperatuur: 4°C
Voelt als: 1°C
Dauwpunt: 3°C
Vochtigheid: 93%
Barometer: 1015 hPa
Bewolking: Bewolking
Zicht: meer dan 10 km
Bewolking: Bewolking 5486.4 m
EHGR 250255Z AUTO 16007KT 110V170 9999 OVC180 04/03 Q1015 BLU
EBBL - Kleine-Brogel(Ba, Belgium
Afstand tot: ZZW 71 km
Gewijzigd: 25-11-2020 03:25
Grotendeels bewolkt  
Grotendeels bewolkt  
   Wind: varieert 3.7 km/h
Wind: varieert 3.7 km/h
Temperatuur: 2°C
Dauwpunt: 1°C
Vochtigheid: 93%
Barometer: 1016 hPa
Bewolking: Grotendeels bewolkt
Zicht: meer dan 10 km
Bewolking: Licht bewolkt 6400.8 m,
Grotendeels bewolkt 7010.4 m
EBBL 250225Z AUTO VRB02KT 9999 FEW210/// BKN230/// 02/01 Q1016 BLU

Script ontwikkeld door  Saratoga-weather.org Aangepast voor de template door  Weerstation Leuven